createdAt,value
2023-02-11T00:01:39.705Z,31.23
2023-02-11T00:04:08.737Z,34.23
2023-02-11T00:06:39.708Z,34.07
2023-02-11T00:09:08.758Z,25.47
2023-02-11T00:11:37.420Z,24.27
2023-02-11T00:14:09.465Z,28.23
2023-02-11T00:16:38.267Z,33.73
2023-02-11T00:19:07.411Z,22.00
2023-02-11T00:21:36.281Z,22.47
2023-02-11T00:24:05.399Z,30.33
2023-02-11T00:26:36.601Z,31.00
2023-02-11T00:29:07.356Z,21.40
2023-02-11T00:31:36.602Z,32.63
2023-02-11T00:34:05.326Z,26.60
2023-02-11T00:36:33.989Z,27.93
2023-02-11T00:39:02.627Z,23.73
2023-02-11T00:41:31.588Z,34.57
2023-02-11T00:44:00.262Z,20.37
2023-02-11T00:46:30.478Z,26.23
2023-02-11T00:48:59.116Z,19.43
2023-02-11T00:51:28.526Z,20.30
2023-02-11T00:53:57.112Z,20.43
2023-02-11T00:56:25.916Z,26.20
2023-02-11T00:58:54.595Z,28.93
2023-02-11T01:01:23.302Z,29.67
2023-02-11T01:03:53.382Z,25.17
2023-02-11T01:06:22.138Z,21.30
2023-02-11T01:08:50.688Z,23.50
2023-02-11T01:11:21.555Z,32.47
2023-02-11T01:13:51.280Z,20.37
2023-02-11T01:16:21.059Z,23.43
2023-02-11T01:18:50.204Z,27.53
2023-02-11T01:21:20.246Z,26.53
2023-02-11T01:23:48.915Z,26.03
2023-02-11T01:26:17.811Z,25.67
2023-02-11T01:28:46.592Z,21.60
2023-02-11T01:31:15.630Z,27.50
2023-02-11T01:33:44.240Z,19.13
2023-02-11T01:36:13.801Z,28.77
2023-02-11T01:38:44.702Z,31.20
2023-02-11T01:41:15.822Z,20.27
2023-02-11T01:43:48.181Z,21.43
2023-02-11T01:46:29.363Z,24.40
2023-02-11T01:49:02.438Z,20.90
2023-02-11T01:51:35.496Z,29.57
2023-02-11T01:54:25.385Z,31.07
2023-02-11T01:57:13.773Z,23.73
2023-02-11T01:59:47.842Z,29.13
2023-02-11T02:02:21.299Z,23.23
2023-02-11T02:04:56.419Z,37.07
2023-02-11T02:07:33.883Z,21.17
2023-02-11T02:10:08.741Z,23.87
2023-02-11T02:12:37.320Z,28.07
2023-02-11T02:15:27.069Z,26.73
2023-02-11T02:18:07.075Z,33.20
2023-02-11T02:21:07.445Z,36.93
2023-02-11T02:23:52.080Z,28.70
2023-02-11T02:26:53.833Z,30.00
2023-02-11T02:29:55.391Z,29.53
2023-02-11T02:32:31.615Z,24.50
2023-02-11T02:35:11.035Z,27.73
2023-02-11T02:37:43.240Z,40.73
2023-02-11T02:40:17.827Z,23.00
2023-02-11T02:42:47.881Z,26.13
2023-02-11T02:45:16.591Z,24.50
2023-02-11T02:47:46.575Z,23.97
2023-02-11T02:50:18.766Z,31.20
2023-02-11T02:52:57.117Z,26.07
2023-02-11T02:55:37.941Z,29.17
2023-02-11T02:58:21.439Z,24.80
2023-02-11T03:01:00.350Z,27.83
2023-02-11T03:03:39.191Z,37.37
2023-02-11T03:06:14.246Z,27.03
2023-02-11T03:08:47.354Z,13.30
2023-02-11T03:11:19.724Z,33.30
2023-02-11T03:13:50.833Z,28.83
2023-02-11T03:16:23.224Z,22.77
2023-02-11T03:18:58.222Z,23.47
2023-02-11T03:21:27.938Z,21.93
2023-02-11T03:24:01.770Z,21.30
2023-02-11T03:26:37.094Z,28.37
2023-02-11T03:29:11.037Z,22.43
2023-02-11T03:31:48.806Z,22.50
2023-02-11T03:34:24.689Z,21.50
2023-02-11T03:36:58.017Z,21.20
2023-02-11T03:39:34.453Z,28.33
2023-02-11T03:42:05.257Z,29.00
2023-02-11T03:44:38.473Z,31.70
2023-02-11T03:47:10.577Z,30.10
2023-02-11T03:49:42.916Z,28.70
2023-02-11T03:52:13.084Z,16.63
2023-02-11T03:55:01.409Z,32.33
2023-02-11T03:57:30.130Z,32.13
2023-02-11T04:00:00.390Z,23.73
2023-02-11T04:02:32.806Z,31.50
2023-02-11T04:05:02.812Z,21.77
2023-02-11T04:07:31.532Z,29.40
2023-02-11T04:10:00.530Z,23.30
2023-02-11T04:12:29.156Z,28.93
2023-02-11T04:14:57.730Z,33.17
2023-02-11T04:17:26.529Z,28.87
2023-02-11T04:19:55.251Z,31.57
2023-02-11T04:22:25.266Z,27.30
2023-02-11T04:24:53.825Z,38.03
2023-02-11T04:27:22.522Z,27.67
2023-02-11T04:29:51.241Z,31.83
2023-02-11T04:32:38.225Z,29.57
2023-02-11T04:35:25.300Z,26.70
2023-02-11T04:37:55.320Z,29.03
2023-02-11T04:40:23.968Z,29.80
2023-02-11T04:42:53.675Z,35.13
2023-02-11T04:45:22.340Z,32.73
2023-02-11T04:48:28.133Z,32.43
2023-02-11T04:50:58.846Z,32.80
2023-02-11T04:53:29.095Z,30.93
2023-02-11T04:55:57.746Z,32.53
2023-02-11T04:58:26.337Z,35.03
2023-02-11T05:01:15.270Z,29.17
2023-02-11T05:03:44.744Z,38.23
2023-02-11T05:06:14.690Z,31.07
2023-02-11T05:08:44.733Z,42.47
2023-02-11T05:11:18.610Z,30.03
2023-02-11T05:13:47.961Z,42.50
2023-02-11T05:16:17.451Z,36.30
2023-02-11T05:18:46.659Z,41.30
2023-02-11T05:21:33.705Z,29.43
2023-02-11T05:24:07.018Z,30.53
2023-02-11T05:26:36.705Z,26.17
2023-02-11T05:29:06.395Z,33.03
2023-02-11T05:31:35.034Z,37.77
2023-02-11T05:34:04.749Z,33.07
2023-02-11T05:36:33.598Z,39.70
2023-02-11T05:39:02.213Z,34.50
2023-02-11T05:42:12.085Z,42.20
2023-02-11T05:44:42.457Z,40.97
2023-02-11T05:47:29.654Z,46.17
2023-02-11T05:49:58.363Z,35.23
2023-02-11T05:52:27.136Z,47.20
2023-02-11T05:54:56.762Z,43.93
2023-02-11T05:57:25.343Z,43.00
2023-02-11T05:59:55.391Z,42.63
2023-02-11T06:02:44.419Z,39.57
2023-02-11T06:05:13.258Z,40.80
2023-02-11T06:08:39.107Z,40.97
2023-02-11T06:11:08.433Z,42.43
2023-02-11T06:13:37.494Z,43.70
2023-02-11T06:16:08.087Z,37.80
2023-02-11T06:19:31.886Z,49.60
2023-02-11T06:22:00.534Z,46.80
2023-02-11T06:24:54.747Z,40.40
2023-02-11T06:27:19.123Z,35.83
2023-02-11T06:30:08.948Z,35.80
2023-02-11T06:32:44.395Z,52.83
2023-02-11T06:35:14.344Z,38.33
2023-02-11T06:37:43.222Z,45.80
2023-02-11T06:40:12.880Z,42.87
2023-02-11T06:42:41.948Z,43.40
2023-02-11T06:45:11.185Z,42.80
2023-02-11T06:47:42.061Z,47.60
2023-02-11T06:50:14.841Z,41.37
2023-02-11T06:52:43.657Z,54.47
2023-02-11T06:55:12.362Z,41.43
2023-02-11T06:57:41.001Z,47.53
2023-02-11T07:00:10.991Z,41.90
2023-02-11T07:02:41.040Z,52.43
2023-02-11T07:05:10.260Z,47.27
2023-02-11T07:07:39.035Z,55.00
2023-02-11T07:10:08.479Z,44.07
2023-02-11T07:12:37.180Z,45.33
2023-02-11T07:15:06.454Z,53.80
2023-02-11T07:17:36.243Z,44.87
2023-02-11T07:20:07.258Z,36.67
2023-02-11T07:22:36.045Z,47.67
2023-02-11T07:25:05.284Z,41.83
2023-02-11T07:27:33.974Z,56.07
2023-02-11T07:30:04.335Z,43.83
2023-02-11T07:32:34.873Z,43.07
2023-02-11T07:35:04.047Z,42.67
2023-02-11T07:37:35.050Z,43.07
2023-02-11T07:40:04.293Z,53.17
2023-02-11T07:42:32.933Z,51.33
2023-02-11T07:45:01.563Z,43.03
2023-02-11T07:47:30.166Z,44.37
2023-02-11T07:49:58.819Z,49.00
2023-02-11T07:52:30.275Z,50.17
2023-02-11T07:55:00.215Z,49.50
2023-02-11T07:57:28.971Z,53.00
2023-02-11T07:59:57.606Z,54.03
2023-02-11T08:02:26.469Z,50.63
2023-02-11T08:04:55.397Z,51.80
2023-02-11T08:07:33.754Z,49.53
2023-02-11T08:10:03.891Z,55.67
2023-02-11T08:12:32.642Z,51.33
2023-02-11T08:15:02.575Z,45.07
2023-02-11T08:17:31.272Z,54.23
2023-02-11T08:19:59.925Z,43.73
2023-02-11T08:22:28.564Z,46.33
2023-02-11T08:24:58.514Z,43.07
2023-02-11T08:27:28.963Z,38.87
2023-02-11T08:29:59.572Z,43.70
2023-02-11T08:32:29.102Z,46.43
2023-02-11T08:34:57.676Z,45.87
2023-02-11T08:37:26.441Z,47.93
2023-02-11T08:39:55.020Z,48.17
2023-02-11T08:42:23.672Z,51.57
2023-02-11T08:44:53.836Z,44.37
2023-02-11T08:47:22.489Z,52.03
2023-02-11T08:49:51.172Z,48.27
2023-02-11T08:52:29.969Z,53.90
2023-02-11T08:54:58.950Z,49.50
2023-02-11T08:57:28.554Z,41.80
2023-02-11T08:59:58.688Z,43.17
2023-02-11T09:02:27.414Z,38.93
2023-02-11T09:04:56.133Z,45.53
2023-02-11T09:07:24.772Z,48.20
2023-02-11T09:09:53.826Z,51.83
2023-02-11T09:12:22.588Z,46.13
2023-02-11T09:14:54.227Z,52.57
2023-02-11T09:17:24.662Z,53.47
2023-02-11T09:19:59.595Z,52.40
2023-02-11T09:22:28.294Z,44.57
2023-02-11T09:24:57.249Z,47.37
2023-02-11T09:27:25.920Z,49.07
2023-02-11T09:29:55.868Z,47.47
2023-02-11T09:32:28.501Z,47.73
2023-02-11T09:34:57.372Z,40.93
2023-02-11T09:37:27.076Z,40.63
2023-02-11T09:39:55.738Z,45.07
2023-02-11T09:42:48.005Z,43.73
2023-02-11T09:45:23.125Z,44.13
2023-02-11T09:47:58.928Z,36.27
2023-02-11T09:50:33.187Z,39.70
2023-02-11T09:53:05.040Z,38.53
2023-02-11T09:55:38.086Z,42.43
2023-02-11T09:58:13.296Z,35.67
2023-02-11T10:00:45.983Z,50.17
2023-02-11T10:03:41.048Z,34.90
2023-02-11T10:06:26.682Z,44.37
2023-02-11T10:09:05.797Z,42.60
2023-02-11T10:11:43.230Z,31.57
2023-02-11T10:14:26.727Z,41.50
2023-02-11T10:17:04.578Z,44.70
2023-02-11T10:19:50.428Z,46.00
2023-02-11T10:22:23.537Z,38.40
2023-02-11T10:24:58.387Z,38.03
2023-02-11T10:27:30.546Z,33.73
2023-02-11T10:30:03.933Z,41.00
2023-02-11T10:32:40.474Z,39.23
2023-02-11T10:35:18.021Z,37.53
2023-02-11T10:37:46.993Z,45.40
2023-02-11T10:40:17.790Z,33.97
2023-02-11T10:42:49.502Z,32.27
2023-02-11T10:45:24.848Z,31.30
2023-02-11T10:47:53.499Z,36.63
2023-02-11T10:50:28.907Z,30.23
2023-02-11T10:53:17.010Z,28.70
2023-02-11T10:55:53.467Z,38.10
2023-02-11T10:58:27.454Z,34.30
2023-02-11T11:00:57.971Z,30.30
2023-02-11T11:03:28.522Z,37.53
2023-02-11T11:06:01.505Z,31.23
2023-02-11T11:08:41.720Z,34.27
2023-02-11T11:11:13.056Z,24.17
2023-02-11T11:13:43.424Z,29.90
2023-02-11T11:16:21.767Z,28.67
2023-02-11T11:18:52.008Z,39.53
2023-02-11T11:21:25.112Z,34.40
2023-02-11T11:23:59.010Z,37.57
2023-02-11T11:26:30.067Z,30.20
2023-02-11T11:29:02.509Z,37.53
2023-02-11T11:31:35.008Z,32.30
2023-02-11T11:34:21.855Z,27.03
2023-02-11T11:36:52.330Z,33.33
2023-02-11T11:39:26.090Z,36.27
2023-02-11T11:41:59.371Z,33.50
2023-02-11T11:44:33.379Z,29.80
2023-02-11T11:47:37.573Z,34.03
2023-02-11T11:50:28.194Z,20.73
2023-02-11T11:53:04.285Z,30.50
2023-02-11T11:55:37.685Z,22.10
2023-02-11T11:58:06.977Z,22.00
2023-02-11T12:00:40.960Z,25.33
2023-02-11T12:03:48.888Z,24.43
2023-02-11T12:06:30.695Z,25.07
2023-02-11T12:09:10.899Z,27.67
2023-02-11T12:12:04.858Z,24.80
2023-02-11T12:14:44.573Z,26.40
2023-02-11T12:17:23.777Z,21.83
2023-02-11T12:20:01.880Z,33.53
2023-02-11T12:22:43.333Z,24.10
2023-02-11T12:25:27.362Z,23.27
2023-02-11T12:28:15.801Z,32.90
2023-02-11T12:31:01.270Z,28.27
2023-02-11T12:33:49.917Z,28.53
2023-02-11T12:36:32.199Z,23.67
2023-02-11T12:39:13.546Z,31.10
2023-02-11T12:42:12.427Z,26.67
2023-02-11T12:44:55.878Z,24.60
2023-02-11T12:47:32.588Z,23.70
2023-02-11T12:50:12.844Z,24.60
2023-02-11T12:53:05.361Z,27.83
2023-02-11T12:55:38.120Z,28.37
2023-02-11T12:58:16.615Z,21.73
2023-02-11T13:00:51.240Z,27.00
2023-02-11T13:03:25.606Z,20.80
2023-02-11T13:05:58.135Z,28.33
2023-02-11T13:08:32.154Z,24.93
2023-02-11T13:11:05.297Z,21.87
2023-02-11T13:13:43.971Z,20.67
2023-02-11T13:16:21.127Z,22.47
2023-02-11T13:18:56.297Z,24.60
2023-02-11T13:21:39.521Z,24.33
2023-02-11T13:24:18.620Z,22.87
2023-02-11T13:26:55.784Z,18.30
2023-02-11T13:29:33.570Z,21.43
2023-02-11T13:32:09.498Z,29.50
2023-02-11T13:35:00.309Z,21.97
2023-02-11T13:37:34.345Z,23.67
2023-02-11T13:40:05.984Z,24.17
2023-02-11T13:42:48.352Z,20.93
2023-02-11T13:45:31.357Z,23.47
2023-02-11T13:48:02.302Z,29.63
2023-02-11T13:50:33.774Z,23.57
2023-02-11T13:53:04.684Z,24.90
2023-02-11T13:55:34.972Z,21.00
2023-02-11T13:58:35.926Z,16.27
2023-02-11T14:01:06.147Z,26.37
2023-02-11T14:03:58.411Z,25.13
2023-02-11T14:06:46.570Z,24.93
2023-02-11T14:09:45.124Z,23.13
2023-02-11T14:12:33.385Z,20.00
2023-02-11T14:15:26.441Z,28.33
2023-02-11T14:17:56.442Z,23.77
2023-02-11T14:20:38.136Z,18.97
2023-02-11T14:23:08.141Z,26.63
2023-02-11T14:25:38.647Z,19.50
2023-02-11T14:28:16.490Z,29.93
2023-02-11T14:30:58.143Z,18.93
2023-02-11T14:34:00.068Z,21.97
2023-02-11T14:36:55.871Z,19.27
2023-02-11T14:39:36.545Z,23.67
2023-02-11T14:42:05.987Z,26.67
2023-02-11T14:44:36.226Z,14.80
2023-02-11T14:47:04.925Z,21.53
2023-02-11T14:49:39.356Z,19.70
2023-02-11T14:52:20.787Z,21.50
2023-02-11T14:54:52.319Z,25.43
2023-02-11T14:57:22.073Z,16.83
2023-02-11T14:59:59.074Z,21.93
2023-02-11T15:02:31.540Z,21.20
2023-02-11T15:07:59.365Z,25.40
2023-02-11T15:10:33.114Z,15.63
2023-02-11T15:13:03.523Z,25.83
2023-02-11T15:15:34.670Z,24.13
2023-02-11T15:18:05.635Z,30.53
2023-02-11T15:20:36.021Z,16.37
2023-02-11T15:23:09.862Z,20.27
2023-02-11T15:25:44.630Z,15.07
2023-02-11T15:28:23.579Z,16.20
2023-02-11T15:30:59.678Z,29.57
2023-02-11T15:33:30.318Z,19.90
2023-02-11T15:35:59.941Z,28.47
2023-02-11T15:38:30.975Z,24.87
2023-02-11T15:41:02.173Z,27.13
2023-02-11T15:43:44.536Z,21.73
2023-02-11T15:46:16.462Z,21.53
2023-02-11T15:48:47.900Z,15.50
2023-02-11T15:51:21.962Z,17.97
2023-02-11T15:53:56.895Z,20.87
2023-02-11T15:56:29.924Z,19.73
2023-02-11T15:59:01.289Z,23.30
2023-02-11T16:01:33.844Z,22.47
2023-02-11T16:04:03.558Z,25.33
2023-02-11T16:06:38.341Z,18.53
2023-02-11T16:09:32.642Z,26.20
2023-02-11T16:12:03.697Z,24.90
2023-02-11T16:14:37.045Z,24.43
2023-02-11T16:17:08.918Z,25.27
2023-02-11T16:19:43.137Z,27.70
2023-02-11T16:22:16.485Z,26.43
2023-02-11T16:24:49.636Z,31.90
2023-02-11T16:27:23.348Z,25.20
2023-02-11T16:29:53.256Z,24.83
2023-02-11T16:32:23.858Z,21.40
2023-02-11T16:34:53.439Z,28.87
2023-02-11T16:37:22.434Z,20.70
2023-02-11T16:39:55.192Z,25.17
2023-02-11T16:42:23.968Z,17.07
2023-02-11T16:44:52.901Z,22.57
2023-02-11T16:47:26.226Z,27.57
2023-02-11T16:49:56.799Z,27.37
2023-02-11T16:52:26.645Z,24.70
2023-02-11T16:54:56.790Z,24.03
2023-02-11T16:57:30.303Z,23.37
2023-02-11T16:59:59.324Z,30.00
2023-02-11T17:02:30.730Z,24.37
2023-02-11T17:05:01.625Z,26.73
2023-02-11T17:07:30.742Z,23.80
2023-02-11T17:10:00.914Z,27.97
2023-02-11T17:12:29.622Z,24.10
2023-02-11T17:14:58.233Z,29.73
2023-02-11T17:17:26.831Z,19.20
2023-02-11T17:19:55.392Z,35.67
2023-02-11T17:22:24.036Z,32.77
2023-02-11T17:24:52.662Z,22.63
2023-02-11T17:27:22.745Z,33.97
2023-02-11T17:29:51.427Z,23.00
2023-02-11T17:32:20.174Z,28.70
2023-02-11T17:34:48.958Z,19.57
2023-02-11T17:37:17.646Z,32.07
2023-02-11T17:39:46.288Z,26.07
2023-02-11T17:42:15.390Z,41.83
2023-02-11T17:44:46.917Z,34.53
2023-02-11T17:47:15.602Z,43.10
2023-02-11T17:49:44.550Z,37.43
2023-02-11T17:52:13.561Z,43.53
2023-02-11T17:54:42.536Z,37.47
2023-02-11T17:57:12.225Z,34.73
2023-02-11T17:59:41.389Z,25.43
2023-02-11T18:02:13.487Z,31.10
2023-02-11T18:04:42.335Z,27.97
2023-02-11T18:07:11.162Z,32.83
2023-02-11T18:09:40.162Z,32.17
2023-02-11T18:12:10.725Z,31.43
2023-02-11T18:14:41.062Z,21.97
2023-02-11T18:17:10.119Z,26.87
2023-02-11T18:19:40.085Z,27.93
2023-02-11T18:22:09.772Z,31.30
2023-02-11T18:24:38.420Z,25.87
2023-02-11T18:27:07.087Z,29.37
2023-02-11T18:29:36.133Z,33.10
2023-02-11T18:32:04.992Z,33.40
2023-02-11T18:34:33.727Z,25.33
2023-02-11T18:37:03.820Z,40.83
2023-02-11T18:39:32.804Z,25.77
2023-02-11T18:42:01.382Z,31.53
2023-02-11T18:44:30.263Z,32.57
2023-02-11T18:46:58.986Z,32.07
2023-02-11T18:49:27.739Z,32.37
2023-02-11T18:51:58.784Z,28.90
2023-02-11T18:54:28.808Z,26.47
2023-02-11T18:56:57.609Z,27.70
2023-02-11T18:59:26.465Z,25.10
2023-02-11T19:01:55.259Z,34.83
2023-02-11T19:04:23.987Z,29.27
2023-02-11T19:06:52.742Z,29.13
2023-02-11T19:09:22.186Z,24.30
2023-02-11T19:11:54.414Z,30.63
2023-02-11T19:14:25.077Z,23.77
2023-02-11T19:16:55.790Z,28.10
2023-02-11T19:19:27.941Z,30.70
2023-02-11T19:21:57.575Z,42.20
2023-02-11T19:24:27.240Z,33.80
2023-02-11T19:27:00.178Z,32.17
2023-02-11T19:29:29.581Z,32.23
2023-02-11T19:31:58.786Z,31.77
2023-02-11T19:34:27.444Z,28.27
2023-02-11T19:36:56.839Z,26.17
2023-02-11T19:39:25.989Z,27.63
2023-02-11T19:41:55.144Z,32.47
2023-02-11T19:44:25.093Z,25.93
2023-02-11T19:46:54.788Z,22.13
2023-02-11T19:49:25.972Z,24.30
2023-02-11T19:51:57.428Z,24.13
2023-02-11T19:54:27.395Z,24.13
2023-02-11T19:56:56.311Z,31.97
2023-02-11T19:59:26.748Z,31.53
2023-02-11T20:01:55.640Z,25.43
2023-02-11T20:04:25.232Z,22.00
2023-02-11T20:06:53.938Z,25.50
2023-02-11T20:09:22.855Z,26.57
2023-02-11T20:11:51.470Z,31.23
2023-02-11T20:14:20.427Z,28.10
2023-02-11T20:16:50.760Z,28.37
2023-02-11T20:19:21.972Z,29.27
2023-02-11T20:21:53.627Z,30.20
2023-02-11T20:24:22.586Z,27.30
2023-02-11T20:26:55.395Z,31.83
2023-02-11T20:29:25.085Z,24.70
2023-02-11T20:31:57.155Z,33.43
2023-02-11T20:34:25.991Z,34.50
2023-02-11T20:36:54.999Z,26.17
2023-02-11T20:39:24.877Z,31.03
2023-02-11T20:41:54.517Z,23.67
2023-02-11T20:44:23.376Z,34.23
2023-02-11T20:46:54.198Z,26.03
2023-02-11T20:49:25.547Z,26.17
2023-02-11T20:51:54.553Z,23.03
2023-02-11T20:54:23.996Z,28.93
2023-02-11T20:56:53.921Z,37.17
2023-02-11T20:59:22.927Z,23.37
2023-02-11T21:01:55.502Z,28.03
2023-02-11T21:04:30.393Z,28.93
2023-02-11T21:07:01.374Z,27.47
2023-02-11T21:09:33.366Z,28.20
2023-02-11T21:12:02.554Z,36.57
2023-02-11T21:14:31.834Z,31.90
2023-02-11T21:17:00.676Z,23.50
2023-02-11T21:19:30.710Z,26.40
2023-02-11T21:22:00.988Z,30.87
2023-02-11T21:24:30.845Z,28.80
2023-02-11T21:26:59.688Z,29.17
2023-02-11T21:29:28.401Z,33.53
2023-02-11T21:31:57.131Z,33.37
2023-02-11T21:34:25.810Z,31.90
2023-02-11T21:36:55.821Z,28.47
2023-02-11T21:39:24.409Z,31.50
2023-02-11T21:41:53.333Z,30.13
2023-02-11T21:44:21.957Z,27.47
2023-02-11T21:46:50.707Z,34.40
2023-02-11T21:49:21.338Z,33.30
2023-02-11T21:51:49.968Z,27.00
2023-02-11T21:54:20.209Z,32.10
2023-02-11T21:56:51.918Z,33.97
2023-02-11T21:59:20.562Z,36.87
2023-02-11T22:01:49.294Z,30.33
2023-02-11T22:04:18.355Z,39.50
2023-02-11T22:06:47.102Z,31.30
2023-02-11T22:09:15.718Z,35.23
2023-02-11T22:11:45.696Z,36.97
2023-02-11T22:14:14.313Z,32.50
2023-02-11T22:16:45.302Z,30.37
2023-02-11T22:19:14.856Z,34.10
2023-02-11T22:21:44.250Z,25.63
2023-02-11T22:24:12.902Z,27.00
2023-02-11T22:26:41.571Z,24.70
2023-02-11T22:29:12.481Z,25.97
2023-02-11T22:31:41.185Z,24.70
2023-02-11T22:34:10.176Z,25.97
2023-02-11T22:36:41.728Z,27.37
2023-02-11T22:39:13.646Z,32.13
2023-02-11T22:41:43.178Z,24.23
2023-02-11T22:44:15.079Z,36.93
2023-02-11T22:46:44.062Z,25.93
2023-02-11T22:49:15.749Z,28.13
2023-02-11T22:51:44.754Z,26.83
2023-02-11T22:54:15.441Z,34.03
2023-02-11T22:56:44.875Z,29.77
2023-02-11T22:59:16.204Z,29.83
2023-02-11T23:01:45.444Z,22.20
2023-02-11T23:04:16.949Z,27.37
2023-02-11T23:06:47.446Z,25.83
2023-02-11T23:09:16.078Z,22.10
2023-02-11T23:11:44.693Z,23.77
2023-02-11T23:14:14.705Z,29.17
2023-02-11T23:16:43.439Z,22.57
2023-02-11T23:19:12.585Z,21.07
2023-02-11T23:21:41.349Z,28.83
2023-02-11T23:24:12.712Z,31.67
2023-02-11T23:26:42.161Z,29.83
2023-02-11T23:29:12.005Z,31.17
2023-02-11T23:31:46.073Z,23.53
2023-02-11T23:34:17.266Z,33.47
2023-02-11T23:36:46.109Z,29.27
2023-02-11T23:39:17.204Z,30.23
2023-02-11T23:41:46.245Z,35.20
2023-02-11T23:44:17.527Z,33.67
2023-02-11T23:46:47.479Z,26.73
2023-02-11T23:49:16.359Z,36.73
2023-02-11T23:51:45.364Z,27.13
2023-02-11T23:54:15.490Z,34.20
2023-02-11T23:56:44.195Z,24.67
2023-02-11T23:59:13.255Z,34.57
